sensor_id;sensor_type;location;lat;lon;timestamp;P1;durP1;ratioP1;P2;durP2;ratioP2
803;SDS011;25687;49.976;8.240;2023-05-31T00:01:08;9.97;;;2.63;;
803;SDS011;25687;49.976;8.240;2023-05-31T00:03:33;4.97;;;2.40;;
803;SDS011;25687;49.976;8.240;2023-05-31T00:06:00;8.27;;;2.80;;
803;SDS011;25687;49.976;8.240;2023-05-31T00:08:26;7.83;;;2.80;;
803;SDS011;25687;49.976;8.240;2023-05-31T00:10:51;7.43;;;3.00;;
803;SDS011;25687;49.976;8.240;2023-05-31T00:13:16;8.07;;;2.53;;
803;SDS011;25687;49.976;8.240;2023-05-31T00:15:41;11.03;;;3.57;;
803;SDS011;25687;49.976;8.240;2023-05-31T00:18:07;7.90;;;3.17;;
803;SDS011;25687;49.976;8.240;2023-05-31T00:20:32;9.20;;;2.90;;
803;SDS011;25687;49.976;8.240;2023-05-31T00:22:57;8.57;;;2.63;;
803;SDS011;25687;49.976;8.240;2023-05-31T00:25:22;7.50;;;2.90;;
803;SDS011;25687;49.976;8.240;2023-05-31T00:27:48;10.10;;;3.40;;
803;SDS011;25687;49.976;8.240;2023-05-31T00:30:13;8.13;;;3.23;;
803;SDS011;25687;49.976;8.240;2023-05-31T00:32:38;7.27;;;2.87;;
803;SDS011;25687;49.976;8.240;2023-05-31T00:35:04;9.73;;;3.17;;
803;SDS011;25687;49.976;8.240;2023-05-31T00:37:30;7.40;;;2.97;;
803;SDS011;25687;49.976;8.240;2023-05-31T00:40:01;8.20;;;2.90;;
803;SDS011;25687;49.976;8.240;2023-05-31T00:42:27;9.70;;;2.47;;
803;SDS011;25687;49.976;8.240;2023-05-31T00:44:52;8.97;;;3.23;;
803;SDS011;25687;49.976;8.240;2023-05-31T00:47:17;5.93;;;2.30;;
803;SDS011;25687;49.976;8.240;2023-05-31T00:49:43;8.57;;;2.70;;
803;SDS011;25687;49.976;8.240;2023-05-31T00:52:08;8.57;;;3.40;;
803;SDS011;25687;49.976;8.240;2023-05-31T00:54:34;6.93;;;3.10;;
803;SDS011;25687;49.976;8.240;2023-05-31T00:57:00;10.60;;;3.33;;
803;SDS011;25687;49.976;8.240;2023-05-31T00:59:26;9.87;;;2.80;;
803;SDS011;25687;49.976;8.240;2023-05-31T01:01:52;9.30;;;2.77;;
803;SDS011;25687;49.976;8.240;2023-05-31T01:04:20;12.23;;;3.43;;
803;SDS011;25687;49.976;8.240;2023-05-31T01:06:46;9.00;;;3.50;;
803;SDS011;25687;49.976;8.240;2023-05-31T01:09:14;7.43;;;2.73;;
803;SDS011;25687;49.976;8.240;2023-05-31T01:16:54;7.33;;;2.83;;
803;SDS011;25687;49.976;8.240;2023-05-31T01:19:45;8.47;;;3.00;;
803;SDS011;25687;49.976;8.240;2023-05-31T01:22:26;12.03;;;3.00;;
803;SDS011;25687;49.976;8.240;2023-05-31T01:27:56;10.80;;;3.30;;
803;SDS011;25687;49.976;8.240;2023-05-31T01:30:24;6.73;;;2.70;;
803;SDS011;25687;49.976;8.240;2023-05-31T01:32:52;6.73;;;2.70;;
803;SDS011;25687;49.976;8.240;2023-05-31T01:35:21;10.10;;;3.37;;
803;SDS011;25687;49.976;8.240;2023-05-31T01:37:46;9.77;;;2.90;;
803;SDS011;25687;49.976;8.240;2023-05-31T01:40:11;8.37;;;3.03;;
803;SDS011;25687;49.976;8.240;2023-05-31T01:42:38;10.70;;;3.47;;
803;SDS011;25687;49.976;8.240;2023-05-31T01:45:04;6.63;;;3.20;;
803;SDS011;25687;49.976;8.240;2023-05-31T01:47:30;8.80;;;3.23;;
803;SDS011;25687;49.976;8.240;2023-05-31T01:49:56;8.97;;;3.13;;
803;SDS011;25687;49.976;8.240;2023-05-31T01:52:22;5.83;;;3.20;;
803;SDS011;25687;49.976;8.240;2023-05-31T01:54:48;7.10;;;2.97;;
803;SDS011;25687;49.976;8.240;2023-05-31T01:57:13;6.47;;;2.70;;
803;SDS011;25687;49.976;8.240;2023-05-31T01:59:40;5.93;;;2.67;;
803;SDS011;25687;49.976;8.240;2023-05-31T02:02:06;6.67;;;2.67;;
803;SDS011;25687;49.976;8.240;2023-05-31T02:04:32;6.57;;;3.43;;
803;SDS011;25687;49.976;8.240;2023-05-31T02:06:57;8.67;;;3.17;;
803;SDS011;25687;49.976;8.240;2023-05-31T02:09:23;5.83;;;2.80;;
803;SDS011;25687;49.976;8.240;2023-05-31T02:11:48;3.57;;;2.67;;
803;SDS011;25687;49.976;8.240;2023-05-31T02:14:14;6.87;;;2.93;;
803;SDS011;25687;49.976;8.240;2023-05-31T02:16:39;9.67;;;2.83;;
803;SDS011;25687;49.976;8.240;2023-05-31T02:19:05;12.10;;;3.70;;
803;SDS011;25687;49.976;8.240;2023-05-31T02:21:33;10.07;;;3.17;;
803;SDS011;25687;49.976;8.240;2023-05-31T02:24:00;7.30;;;3.10;;
803;SDS011;25687;49.976;8.240;2023-05-31T02:26:25;7.43;;;3.40;;
803;SDS011;25687;49.976;8.240;2023-05-31T02:28:51;11.87;;;3.27;;
803;SDS011;25687;49.976;8.240;2023-05-31T02:31:16;14.00;;;3.40;;
803;SDS011;25687;49.976;8.240;2023-05-31T02:33:42;12.43;;;3.50;;
803;SDS011;25687;49.976;8.240;2023-05-31T02:36:08;6.60;;;3.00;;
803;SDS011;25687;49.976;8.240;2023-05-31T02:38:34;10.17;;;3.10;;
803;SDS011;25687;49.976;8.240;2023-05-31T02:40:59;6.60;;;3.23;;
803;SDS011;25687;49.976;8.240;2023-05-31T02:43:24;6.57;;;2.53;;
803;SDS011;25687;49.976;8.240;2023-05-31T02:45:50;8.40;;;2.93;;
803;SDS011;25687;49.976;8.240;2023-05-31T02:48:15;5.53;;;3.00;;
803;SDS011;25687;49.976;8.240;2023-05-31T02:50:41;6.87;;;3.30;;
803;SDS011;25687;49.976;8.240;2023-05-31T02:53:06;8.57;;;2.87;;
803;SDS011;25687;49.976;8.240;2023-05-31T02:55:32;10.30;;;3.10;;
803;SDS011;25687;49.976;8.240;2023-05-31T02:57:57;10.93;;;3.33;;
803;SDS011;25687;49.976;8.240;2023-05-31T03:00:23;5.97;;;2.80;;
803;SDS011;25687;49.976;8.240;2023-05-31T03:02:49;7.00;;;2.90;;
803;SDS011;25687;49.976;8.240;2023-05-31T03:05:15;5.63;;;2.70;;
803;SDS011;25687;49.976;8.240;2023-05-31T03:07:40;9.53;;;2.83;;
803;SDS011;25687;49.976;8.240;2023-05-31T03:10:06;8.53;;;2.90;;
803;SDS011;25687;49.976;8.240;2023-05-31T03:12:32;8.13;;;3.10;;
803;SDS011;25687;49.976;8.240;2023-05-31T03:14:58;6.83;;;3.07;;
803;SDS011;25687;49.976;8.240;2023-05-31T03:17:23;8.03;;;2.93;;
803;SDS011;25687;49.976;8.240;2023-05-31T03:19:49;9.70;;;3.00;;
803;SDS011;25687;49.976;8.240;2023-05-31T03:22:14;9.30;;;3.23;;
803;SDS011;25687;49.976;8.240;2023-05-31T03:24:39;14.37;;;2.70;;
803;SDS011;25687;49.976;8.240;2023-05-31T03:27:05;8.70;;;3.60;;
803;SDS011;25687;49.976;8.240;2023-05-31T03:29:31;6.43;;;3.27;;
803;SDS011;25687;49.976;8.240;2023-05-31T03:31:58;10.37;;;3.77;;
803;SDS011;25687;49.976;8.240;2023-05-31T03:34:23;9.20;;;3.57;;
803;SDS011;25687;49.976;8.240;2023-05-31T03:36:49;6.03;;;3.17;;
803;SDS011;25687;49.976;8.240;2023-05-31T03:39:15;7.20;;;3.10;;
803;SDS011;25687;49.976;8.240;2023-05-31T03:41:41;8.20;;;3.00;;
803;SDS011;25687;49.976;8.240;2023-05-31T03:44:06;6.60;;;3.20;;
803;SDS011;25687;49.976;8.240;2023-05-31T03:46:31;7.57;;;3.00;;
803;SDS011;25687;49.976;8.240;2023-05-31T03:48:57;7.27;;;3.43;;
803;SDS011;25687;49.976;8.240;2023-05-31T03:51:22;11.93;;;3.50;;
803;SDS011;25687;49.976;8.240;2023-05-31T03:53:48;11.27;;;3.33;;
803;SDS011;25687;49.976;8.240;2023-05-31T03:56:13;8.23;;;3.50;;
803;SDS011;25687;49.976;8.240;2023-05-31T03:58:38;5.20;;;2.50;;
803;SDS011;25687;49.976;8.240;2023-05-31T04:01:04;8.83;;;2.97;;
803;SDS011;25687;49.976;8.240;2023-05-31T04:03:31;10.73;;;3.40;;
803;SDS011;25687;49.976;8.240;2023-05-31T04:05:56;7.07;;;3.17;;
803;SDS011;25687;49.976;8.240;2023-05-31T04:08:22;8.53;;;3.17;;
803;SDS011;25687;49.976;8.240;2023-05-31T04:10:47;11.37;;;3.50;;
803;SDS011;25687;49.976;8.240;2023-05-31T04:13:13;6.00;;;2.97;;
803;SDS011;25687;49.976;8.240;2023-05-31T04:15:39;6.40;;;3.13;;
803;SDS011;25687;49.976;8.240;2023-05-31T04:18:04;8.07;;;3.00;;
803;SDS011;25687;49.976;8.240;2023-05-31T04:20:29;5.90;;;2.67;;
803;SDS011;25687;49.976;8.240;2023-05-31T04:22:55;6.80;;;3.07;;
803;SDS011;25687;49.976;8.240;2023-05-31T04:25:20;9.30;;;3.40;;
803;SDS011;25687;49.976;8.240;2023-05-31T04:27:46;9.60;;;3.23;;
803;SDS011;25687;49.976;8.240;2023-05-31T04:30:12;4.73;;;2.63;;
803;SDS011;25687;49.976;8.240;2023-05-31T04:32:37;6.67;;;3.23;;
803;SDS011;25687;49.976;8.240;2023-05-31T04:35:03;5.30;;;3.13;;
803;SDS011;25687;49.976;8.240;2023-05-31T04:37:30;7.57;;;3.43;;
803;SDS011;25687;49.976;8.240;2023-05-31T04:39:56;6.30;;;2.60;;
803;SDS011;25687;49.976;8.240;2023-05-31T04:42:22;7.33;;;3.13;;
803;SDS011;25687;49.976;8.240;2023-05-31T04:44:49;7.97;;;2.87;;
803;SDS011;25687;49.976;8.240;2023-05-31T04:47:16;7.27;;;2.83;;
803;SDS011;25687;49.976;8.240;2023-05-31T04:49:42;7.67;;;2.33;;
803;SDS011;25687;49.976;8.240;2023-05-31T04:52:07;5.90;;;3.03;;
803;SDS011;25687;49.976;8.240;2023-05-31T04:54:34;6.70;;;2.90;;
803;SDS011;25687;49.976;8.240;2023-05-31T04:57:00;7.00;;;2.60;;
803;SDS011;25687;49.976;8.240;2023-05-31T04:59:27;8.77;;;3.30;;
803;SDS011;25687;49.976;8.240;2023-05-31T05:01:52;7.63;;;3.00;;
803;SDS011;25687;49.976;8.240;2023-05-31T05:04:18;7.07;;;3.33;;
803;SDS011;25687;49.976;8.240;2023-05-31T05:06:43;8.37;;;3.00;;
803;SDS011;25687;49.976;8.240;2023-05-31T05:09:08;9.03;;;3.93;;
803;SDS011;25687;49.976;8.240;2023-05-31T05:11:34;8.40;;;2.90;;
803;SDS011;25687;49.976;8.240;2023-05-31T05:13:59;8.90;;;3.17;;
803;SDS011;25687;49.976;8.240;2023-05-31T05:16:24;7.43;;;2.90;;
803;SDS011;25687;49.976;8.240;2023-05-31T05:18:50;5.90;;;3.00;;
803;SDS011;25687;49.976;8.240;2023-05-31T05:21:15;4.17;;;2.30;;
803;SDS011;25687;49.976;8.240;2023-05-31T05:23:41;5.90;;;3.03;;
803;SDS011;25687;49.976;8.240;2023-05-31T05:26:07;11.77;;;3.30;;
803;SDS011;25687;49.976;8.240;2023-05-31T05:28:32;7.23;;;3.47;;
803;SDS011;25687;49.976;8.240;2023-05-31T05:30:58;7.10;;;2.70;;
803;SDS011;25687;49.976;8.240;2023-05-31T05:33:23;14.43;;;2.97;;
803;SDS011;25687;49.976;8.240;2023-05-31T05:35:48;10.97;;;3.07;;
803;SDS011;25687;49.976;8.240;2023-05-31T05:38:14;8.80;;;3.23;;
803;SDS011;25687;49.976;8.240;2023-05-31T05:40:39;12.60;;;2.90;;
803;SDS011;25687;49.976;8.240;2023-05-31T05:43:04;11.33;;;2.63;;
803;SDS011;25687;49.976;8.240;2023-05-31T05:45:30;7.67;;;2.80;;
803;SDS011;25687;49.976;8.240;2023-05-31T05:47:55;6.63;;;2.77;;
803;SDS011;25687;49.976;8.240;2023-05-31T05:50:21;5.40;;;2.70;;
803;SDS011;25687;49.976;8.240;2023-05-31T05:52:46;6.23;;;3.10;;
803;SDS011;25687;49.976;8.240;2023-05-31T05:55:12;10.00;;;3.30;;
803;SDS011;25687;49.976;8.240;2023-05-31T05:57:37;8.30;;;3.03;;
803;SDS011;25687;49.976;8.240;2023-05-31T06:00:02;10.53;;;3.33;;
803;SDS011;25687;49.976;8.240;2023-05-31T06:02:36;6.33;;;2.90;;
803;SDS011;25687;49.976;8.240;2023-05-31T06:05:02;8.47;;;3.03;;
803;SDS011;25687;49.976;8.240;2023-05-31T06:07:27;7.33;;;2.70;;
803;SDS011;25687;49.976;8.240;2023-05-31T06:09:52;7.10;;;2.97;;
803;SDS011;25687;49.976;8.240;2023-05-31T06:12:18;6.10;;;2.60;;
803;SDS011;25687;49.976;8.240;2023-05-31T06:14:43;6.50;;;2.90;;
803;SDS011;25687;49.976;8.240;2023-05-31T06:17:09;7.13;;;2.93;;
803;SDS011;25687;49.976;8.240;2023-05-31T06:19:34;5.73;;;2.60;;
803;SDS011;25687;49.976;8.240;2023-05-31T06:22:00;8.93;;;2.83;;
803;SDS011;25687;49.976;8.240;2023-05-31T06:24:25;12.07;;;3.67;;
803;SDS011;25687;49.976;8.240;2023-05-31T06:26:50;5.07;;;2.83;;
803;SDS011;25687;49.976;8.240;2023-05-31T06:29:16;9.17;;;3.80;;
803;SDS011;25687;49.976;8.240;2023-05-31T06:31:41;10.33;;;2.90;;
803;SDS011;25687;49.976;8.240;2023-05-31T06:34:07;12.10;;;2.90;;
803;SDS011;25687;49.976;8.240;2023-05-31T06:36:32;5.97;;;2.97;;
803;SDS011;25687;49.976;8.240;2023-05-31T06:38:58;4.80;;;2.93;;
803;SDS011;25687;49.976;8.240;2023-05-31T06:41:23;7.87;;;2.70;;
803;SDS011;25687;49.976;8.240;2023-05-31T06:43:51;6.50;;;2.63;;
803;SDS011;25687;49.976;8.240;2023-05-31T06:46:16;5.73;;;3.13;;
803;SDS011;25687;49.976;8.240;2023-05-31T06:48:41;3.73;;;2.50;;
803;SDS011;25687;49.976;8.240;2023-05-31T06:51:07;5.83;;;2.40;;
803;SDS011;25687;49.976;8.240;2023-05-31T06:53:32;4.45;;;2.60;;
803;SDS011;25687;49.976;8.240;2023-05-31T06:55:57;6.65;;;2.72;;
803;SDS011;25687;49.976;8.240;2023-05-31T06:58:23;6.57;;;2.80;;
803;SDS011;25687;49.976;8.240;2023-05-31T07:00:49;8.27;;;3.13;;
803;SDS011;25687;49.976;8.240;2023-05-31T07:03:14;7.97;;;3.30;;
803;SDS011;25687;49.976;8.240;2023-05-31T07:05:39;4.07;;;2.35;;
803;SDS011;25687;49.976;8.240;2023-05-31T07:08:09;7.13;;;3.03;;
803;SDS011;25687;49.976;8.240;2023-05-31T07:10:34;4.50;;;2.13;;
803;SDS011;25687;49.976;8.240;2023-05-31T07:12:59;5.73;;;2.53;;
803;SDS011;25687;49.976;8.240;2023-05-31T07:15:25;10.70;;;2.87;;
803;SDS011;25687;49.976;8.240;2023-05-31T07:17:52;5.97;;;2.50;;
803;SDS011;25687;49.976;8.240;2023-05-31T07:20:17;4.38;;;2.50;;
803;SDS011;25687;49.976;8.240;2023-05-31T07:22:43;8.07;;;2.83;;
803;SDS011;25687;49.976;8.240;2023-05-31T07:25:08;7.63;;;2.72;;
803;SDS011;25687;49.976;8.240;2023-05-31T07:27:34;4.32;;;2.40;;
803;SDS011;25687;49.976;8.240;2023-05-31T07:29:59;11.88;;;2.53;;
803;SDS011;25687;49.976;8.240;2023-05-31T07:32:24;4.68;;;2.58;;
803;SDS011;25687;49.976;8.240;2023-05-31T07:34:50;6.95;;;2.55;;
803;SDS011;25687;49.976;8.240;2023-05-31T07:37:15;5.65;;;2.63;;
803;SDS011;25687;49.976;8.240;2023-05-31T07:39:40;6.22;;;2.17;;
803;SDS011;25687;49.976;8.240;2023-05-31T07:42:05;5.68;;;2.42;;
803;SDS011;25687;49.976;8.240;2023-05-31T07:44:31;9.50;;;2.13;;
803;SDS011;25687;49.976;8.240;2023-05-31T07:46:56;5.40;;;2.42;;
803;SDS011;25687;49.976;8.240;2023-05-31T07:49:22;7.97;;;2.42;;
803;SDS011;25687;49.976;8.240;2023-05-31T07:51:47;7.28;;;2.25;;
803;SDS011;25687;49.976;8.240;2023-05-31T07:54:12;4.55;;;2.40;;
803;SDS011;25687;49.976;8.240;2023-05-31T07:56:38;13.95;;;2.78;;
803;SDS011;25687;49.976;8.240;2023-05-31T07:59:03;3.53;;;2.55;;
803;SDS011;25687;49.976;8.240;2023-05-31T08:01:28;3.55;;;2.22;;
803;SDS011;25687;49.976;8.240;2023-05-31T08:03:54;5.93;;;2.13;;
803;SDS011;25687;49.976;8.240;2023-05-31T08:06:19;6.25;;;2.28;;
803;SDS011;25687;49.976;8.240;2023-05-31T08:08:45;11.43;;;2.75;;
803;SDS011;25687;49.976;8.240;2023-05-31T08:11:10;5.45;;;2.65;;
803;SDS011;25687;49.976;8.240;2023-05-31T08:13:36;3.70;;;2.30;;
803;SDS011;25687;49.976;8.240;2023-05-31T08:16:01;5.43;;;2.40;;
803;SDS011;25687;49.976;8.240;2023-05-31T08:18:26;7.72;;;2.28;;
803;SDS011;25687;49.976;8.240;2023-05-31T08:20:52;6.32;;;2.33;;
803;SDS011;25687;49.976;8.240;2023-05-31T08:23:18;4.03;;;2.58;;
803;SDS011;25687;49.976;8.240;2023-05-31T08:25:44;7.47;;;2.40;;
803;SDS011;25687;49.976;8.240;2023-05-31T08:28:09;5.05;;;2.53;;
803;SDS011;25687;49.976;8.240;2023-05-31T08:30:34;4.47;;;2.53;;
803;SDS011;25687;49.976;8.240;2023-05-31T08:33:00;6.82;;;2.53;;
803;SDS011;25687;49.976;8.240;2023-05-31T08:35:26;5.50;;;2.85;;
803;SDS011;25687;49.976;8.240;2023-05-31T08:37:51;5.38;;;2.42;;
803;SDS011;25687;49.976;8.240;2023-05-31T08:40:17;6.68;;;2.45;;
803;SDS011;25687;49.976;8.240;2023-05-31T08:45:24;5.18;;;2.38;;
803;SDS011;25687;49.976;8.240;2023-05-31T08:50:25;7.70;;;2.50;;
803;SDS011;25687;49.976;8.240;2023-05-31T08:52:51;6.88;;;2.22;;
803;SDS011;25687;49.976;8.240;2023-05-31T08:55:17;6.72;;;2.40;;
803;SDS011;25687;49.976;8.240;2023-05-31T08:57:43;3.60;;;2.47;;
803;SDS011;25687;49.976;8.240;2023-05-31T09:00:10;8.30;;;2.47;;
803;SDS011;25687;49.976;8.240;2023-05-31T09:02:36;4.97;;;2.17;;
803;SDS011;25687;49.976;8.240;2023-05-31T09:05:03;5.57;;;2.78;;
803;SDS011;25687;49.976;8.240;2023-05-31T09:07:29;5.40;;;2.15;;
803;SDS011;25687;49.976;8.240;2023-05-31T09:09:55;4.57;;;2.33;;
803;SDS011;25687;49.976;8.240;2023-05-31T09:12:20;2.90;;;2.13;;
803;SDS011;25687;49.976;8.240;2023-05-31T09:14:46;6.65;;;2.33;;
803;SDS011;25687;49.976;8.240;2023-05-31T09:17:12;7.88;;;2.80;;
803;SDS011;25687;49.976;8.240;2023-05-31T09:19:41;4.85;;;2.13;;
803;SDS011;25687;49.976;8.240;2023-05-31T09:22:15;3.25;;;1.85;;
803;SDS011;25687;49.976;8.240;2023-05-31T09:24:48;4.43;;;2.55;;
803;SDS011;25687;49.976;8.240;2023-05-31T09:27:14;4.70;;;2.33;;
803;SDS011;25687;49.976;8.240;2023-05-31T09:29:41;8.57;;;2.17;;
803;SDS011;25687;49.976;8.240;2023-05-31T09:32:08;4.43;;;2.17;;
803;SDS011;25687;49.976;8.240;2023-05-31T09:34:35;6.20;;;2.33;;
803;SDS011;25687;49.976;8.240;2023-05-31T09:37:00;5.82;;;2.65;;
803;SDS011;25687;49.976;8.240;2023-05-31T09:39:26;6.45;;;2.65;;
803;SDS011;25687;49.976;8.240;2023-05-31T09:41:52;5.47;;;2.15;;
803;SDS011;25687;49.976;8.240;2023-05-31T09:44:17;7.40;;;2.42;;
803;SDS011;25687;49.976;8.240;2023-05-31T09:46:46;5.65;;;2.83;;
803;SDS011;25687;49.976;8.240;2023-05-31T09:49:11;10.57;;;2.70;;
803;SDS011;25687;49.976;8.240;2023-05-31T09:51:36;4.13;;;2.55;;
803;SDS011;25687;49.976;8.240;2023-05-31T09:54:02;6.63;;;2.88;;
803;SDS011;25687;49.976;8.240;2023-05-31T09:56:38;6.82;;;2.40;;
803;SDS011;25687;49.976;8.240;2023-05-31T09:59:05;3.85;;;2.20;;
803;SDS011;25687;49.976;8.240;2023-05-31T10:01:31;3.33;;;2.15;;
803;SDS011;25687;49.976;8.240;2023-05-31T10:03:57;3.58;;;2.13;;
803;SDS011;25687;49.976;8.240;2023-05-31T10:06:24;3.78;;;1.73;;
803;SDS011;25687;49.976;8.240;2023-05-31T10:08:50;5.25;;;2.38;;
803;SDS011;25687;49.976;8.240;2023-05-31T10:11:24;5.55;;;2.28;;
803;SDS011;25687;49.976;8.240;2023-05-31T10:13:52;5.03;;;2.30;;
803;SDS011;25687;49.976;8.240;2023-05-31T10:16:26;4.70;;;2.53;;
803;SDS011;25687;49.976;8.240;2023-05-31T10:18:54;5.68;;;2.10;;
803;SDS011;25687;49.976;8.240;2023-05-31T10:21:26;5.22;;;2.00;;
803;SDS011;25687;49.976;8.240;2023-05-31T10:23:57;3.70;;;1.77;;
803;SDS011;25687;49.976;8.240;2023-05-31T10:26:43;6.38;;;1.92;;
803;SDS011;25687;49.976;8.240;2023-05-31T10:29:23;6.15;;;2.15;;
803;SDS011;25687;49.976;8.240;2023-05-31T10:31:51;5.35;;;1.92;;
803;SDS011;25687;49.976;8.240;2023-05-31T10:34:23;4.32;;;2.10;;
803;SDS011;25687;49.976;8.240;2023-05-31T10:36:53;4.35;;;1.83;;
803;SDS011;25687;49.976;8.240;2023-05-31T10:39:21;3.42;;;2.30;;
803;SDS011;25687;49.976;8.240;2023-05-31T10:41:52;3.42;;;1.95;;
803;SDS011;25687;49.976;8.240;2023-05-31T10:44:25;7.63;;;1.80;;
803;SDS011;25687;49.976;8.240;2023-05-31T10:47:00;4.63;;;1.70;;
803;SDS011;25687;49.976;8.240;2023-05-31T10:49:28;3.00;;;1.65;;
803;SDS011;25687;49.976;8.240;2023-05-31T10:52:03;2.50;;;2.03;;
803;SDS011;25687;49.976;8.240;2023-05-31T10:54:29;5.88;;;2.00;;
803;SDS011;25687;49.976;8.240;2023-05-31T10:56:57;3.55;;;1.60;;
803;SDS011;25687;49.976;8.240;2023-05-31T10:59:25;3.97;;;1.83;;
803;SDS011;25687;49.976;8.240;2023-05-31T11:01:51;4.13;;;1.90;;
803;SDS011;25687;49.976;8.240;2023-05-31T11:04:21;3.90;;;2.10;;
803;SDS011;25687;49.976;8.240;2023-05-31T11:07:09;4.23;;;2.10;;
803;SDS011;25687;49.976;8.240;2023-05-31T11:09:53;3.20;;;2.10;;
803;SDS011;25687;49.976;8.240;2023-05-31T11:12:34;5.97;;;2.00;;
803;SDS011;25687;49.976;8.240;2023-05-31T11:15:02;3.20;;;2.20;;
803;SDS011;25687;49.976;8.240;2023-05-31T11:17:29;3.07;;;1.87;;
803;SDS011;25687;49.976;8.240;2023-05-31T11:20:03;3.10;;;2.00;;
803;SDS011;25687;49.976;8.240;2023-05-31T11:22:30;3.00;;;1.67;;
803;SDS011;25687;49.976;8.240;2023-05-31T11:24:55;5.30;;;1.63;;
803;SDS011;25687;49.976;8.240;2023-05-31T11:27:35;3.57;;;1.90;;
803;SDS011;25687;49.976;8.240;2023-05-31T11:30:02;3.23;;;1.80;;
803;SDS011;25687;49.976;8.240;2023-05-31T11:37:36;2.47;;;1.80;;
803;SDS011;25687;49.976;8.240;2023-05-31T11:40:06;3.77;;;2.43;;
803;SDS011;25687;49.976;8.240;2023-05-31T11:42:40;3.23;;;1.63;;
803;SDS011;25687;49.976;8.240;2023-05-31T11:45:08;4.37;;;1.60;;
803;SDS011;25687;49.976;8.240;2023-05-31T11:50:12;3.30;;;2.00;;
803;SDS011;25687;49.976;8.240;2023-05-31T11:52:40;2.47;;;1.60;;
803;SDS011;25687;49.976;8.240;2023-05-31T11:55:05;6.03;;;2.00;;
803;SDS011;25687;49.976;8.240;2023-05-31T11:57:38;3.17;;;1.90;;
803;SDS011;25687;49.976;8.240;2023-05-31T12:00:06;4.63;;;2.03;;
803;SDS011;25687;49.976;8.240;2023-05-31T12:02:40;3.13;;;1.77;;
803;SDS011;25687;49.976;8.240;2023-05-31T12:05:06;5.00;;;1.67;;
803;SDS011;25687;49.976;8.240;2023-05-31T12:07:36;1.87;;;1.50;;
803;SDS011;25687;49.976;8.240;2023-05-31T12:10:04;5.47;;;2.27;;
803;SDS011;25687;49.976;8.240;2023-05-31T12:12:30;4.60;;;2.10;;
803;SDS011;25687;49.976;8.240;2023-05-31T12:14:55;4.53;;;1.73;;
803;SDS011;25687;49.976;8.240;2023-05-31T12:17:21;3.57;;;1.70;;
803;SDS011;25687;49.976;8.240;2023-05-31T12:19:47;6.17;;;1.80;;
803;SDS011;25687;49.976;8.240;2023-05-31T12:22:13;3.47;;;1.80;;
803;SDS011;25687;49.976;8.240;2023-05-31T12:24:47;3.60;;;1.87;;
803;SDS011;25687;49.976;8.240;2023-05-31T12:27:14;3.50;;;1.60;;
803;SDS011;25687;49.976;8.240;2023-05-31T12:29:40;3.87;;;1.93;;
803;SDS011;25687;49.976;8.240;2023-05-31T12:32:06;3.73;;;2.07;;
803;SDS011;25687;49.976;8.240;2023-05-31T12:34:35;4.77;;;2.03;;
803;SDS011;25687;49.976;8.240;2023-05-31T12:37:05;3.63;;;1.90;;
803;SDS011;25687;49.976;8.240;2023-05-31T12:39:31;2.27;;;1.53;;
803;SDS011;25687;49.976;8.240;2023-05-31T12:41:58;3.73;;;1.70;;
803;SDS011;25687;49.976;8.240;2023-05-31T12:44:25;4.07;;;2.17;;
803;SDS011;25687;49.976;8.240;2023-05-31T12:46:51;3.47;;;1.77;;
803;SDS011;25687;49.976;8.240;2023-05-31T12:49:26;10.63;;;2.00;;
803;SDS011;25687;49.976;8.240;2023-05-31T12:51:59;4.03;;;1.20;;
803;SDS011;25687;49.976;8.240;2023-05-31T12:54:30;3.67;;;1.50;;
803;SDS011;25687;49.976;8.240;2023-05-31T12:57:00;5.10;;;1.42;;
803;SDS011;25687;49.976;8.240;2023-05-31T12:59:27;2.75;;;1.40;;
803;SDS011;25687;49.976;8.240;2023-05-31T13:01:53;1.90;;;1.50;;
803;SDS011;25687;49.976;8.240;2023-05-31T13:04:20;2.70;;;1.50;;
803;SDS011;25687;49.976;8.240;2023-05-31T13:06:45;2.92;;;1.50;;
803;SDS011;25687;49.976;8.240;2023-05-31T13:09:11;3.83;;;1.52;;
803;SDS011;25687;49.976;8.240;2023-05-31T13:11:37;2.33;;;1.40;;
803;SDS011;25687;49.976;8.240;2023-05-31T13:14:03;2.80;;;1.50;;
803;SDS011;25687;49.976;8.240;2023-05-31T13:16:30;4.60;;;2.00;;
803;SDS011;25687;49.976;8.240;2023-05-31T13:18:56;2.70;;;1.65;;
803;SDS011;25687;49.976;8.240;2023-05-31T13:21:22;3.70;;;1.70;;
803;SDS011;25687;49.976;8.240;2023-05-31T13:23:48;1.50;;;1.40;;
803;SDS011;25687;49.976;8.240;2023-05-31T13:26:13;5.17;;;2.03;;
803;SDS011;25687;49.976;8.240;2023-05-31T13:28:39;6.57;;;1.88;;
803;SDS011;25687;49.976;8.240;2023-05-31T13:31:05;4.43;;;1.40;;
803;SDS011;25687;49.976;8.240;2023-05-31T13:33:30;3.88;;;1.80;;
803;SDS011;25687;49.976;8.240;2023-05-31T13:35:56;2.25;;;1.48;;
803;SDS011;25687;49.976;8.240;2023-05-31T13:38:22;6.18;;;1.80;;
803;SDS011;25687;49.976;8.240;2023-05-31T13:40:50;6.15;;;1.65;;
803;SDS011;25687;49.976;8.240;2023-05-31T13:43:17;3.47;;;1.52;;
803;SDS011;25687;49.976;8.240;2023-05-31T13:45:43;6.10;;;1.92;;
803;SDS011;25687;49.976;8.240;2023-05-31T13:48:08;6.93;;;1.90;;
803;SDS011;25687;49.976;8.240;2023-05-31T13:50:34;3.60;;;1.85;;
803;SDS011;25687;49.976;8.240;2023-05-31T13:52:59;6.15;;;1.67;;
803;SDS011;25687;49.976;8.240;2023-05-31T13:55:25;4.25;;;1.88;;
803;SDS011;25687;49.976;8.240;2023-05-31T13:57:50;6.82;;;1.92;;
803;SDS011;25687;49.976;8.240;2023-05-31T14:00:16;5.18;;;1.58;;
803;SDS011;25687;49.976;8.240;2023-05-31T14:02:42;3.80;;;1.73;;
803;SDS011;25687;49.976;8.240;2023-05-31T14:05:07;4.43;;;1.65;;
803;SDS011;25687;49.976;8.240;2023-05-31T14:07:33;5.00;;;1.60;;
803;SDS011;25687;49.976;8.240;2023-05-31T14:09:59;5.07;;;1.92;;
803;SDS011;25687;49.976;8.240;2023-05-31T14:12:24;3.92;;;1.90;;
803;SDS011;25687;49.976;8.240;2023-05-31T14:14:49;7.00;;;1.80;;
803;SDS011;25687;49.976;8.240;2023-05-31T14:17:15;2.63;;;1.88;;
803;SDS011;25687;49.976;8.240;2023-05-31T14:19:40;2.30;;;1.67;;
803;SDS011;25687;49.976;8.240;2023-05-31T14:22:05;2.30;;;1.65;;
803;SDS011;25687;49.976;8.240;2023-05-31T14:24:30;5.15;;;2.15;;
803;SDS011;25687;49.976;8.240;2023-05-31T14:26:56;2.80;;;1.73;;
803;SDS011;25687;49.976;8.240;2023-05-31T14:29:21;4.07;;;1.65;;
803;SDS011;25687;49.976;8.240;2023-05-31T14:31:46;6.70;;;2.25;;
803;SDS011;25687;49.976;8.240;2023-05-31T14:34:11;10.60;;;1.88;;
803;SDS011;25687;49.976;8.240;2023-05-31T14:36:37;4.47;;;1.92;;
803;SDS011;25687;49.976;8.240;2023-05-31T14:39:02;4.28;;;1.63;;
803;SDS011;25687;49.976;8.240;2023-05-31T14:41:28;4.10;;;1.67;;
803;SDS011;25687;49.976;8.240;2023-05-31T14:43:54;2.75;;;1.60;;
803;SDS011;25687;49.976;8.240;2023-05-31T14:46:19;2.95;;;1.75;;
803;SDS011;25687;49.976;8.240;2023-05-31T14:48:44;3.67;;;2.28;;
803;SDS011;25687;49.976;8.240;2023-05-31T14:51:09;2.88;;;1.95;;
803;SDS011;25687;49.976;8.240;2023-05-31T14:53:35;4.95;;;1.70;;
803;SDS011;25687;49.976;8.240;2023-05-31T14:56:00;6.07;;;2.33;;
803;SDS011;25687;49.976;8.240;2023-05-31T14:58:25;3.55;;;1.80;;
803;SDS011;25687;49.976;8.240;2023-05-31T15:00:51;2.92;;;1.77;;
803;SDS011;25687;49.976;8.240;2023-05-31T15:03:16;4.78;;;1.83;;
803;SDS011;25687;49.976;8.240;2023-05-31T15:05:41;4.18;;;1.88;;
803;SDS011;25687;49.976;8.240;2023-05-31T15:08:06;4.03;;;1.77;;
803;SDS011;25687;49.976;8.240;2023-05-31T15:10:32;2.78;;;1.70;;
803;SDS011;25687;49.976;8.240;2023-05-31T15:12:57;2.92;;;1.60;;
803;SDS011;25687;49.976;8.240;2023-05-31T15:15:23;2.65;;;1.60;;
803;SDS011;25687;49.976;8.240;2023-05-31T15:17:48;4.47;;;1.98;;
803;SDS011;25687;49.976;8.240;2023-05-31T15:20:13;2.67;;;1.73;;
803;SDS011;25687;49.976;8.240;2023-05-31T15:22:39;2.95;;;1.58;;
803;SDS011;25687;49.976;8.240;2023-05-31T15:25:05;3.22;;;1.83;;
803;SDS011;25687;49.976;8.240;2023-05-31T15:27:30;4.18;;;2.42;;
803;SDS011;25687;49.976;8.240;2023-05-31T15:29:55;5.38;;;1.80;;
803;SDS011;25687;49.976;8.240;2023-05-31T15:32:21;2.88;;;1.92;;